Time,TemperatureF,DewpointF,PressureIn,WindDirection,WindDirectionDegrees,WindSpeedMPH,WindSpeedGustMPH,Humidity,HourlyPrecipIn,Conditions,Clouds,dailyrainin,SoftwareType,DateUTC
2013-04-11 00:00:00,35.6,35.1,30.03,NE,45,14.5,14.5,98,0.12,,---,0.00,VWS V14.01,2013-04-11 05:00:00,
2013-04-11 00:05:00,35.6,35.1,30.03,East,90,5.8,10.1,98,0.12,,---,0.00,VWS V14.01,2013-04-11 05:05:00,
2013-04-11 00:10:00,35.4,34.9,30.03,North,0,2.7,7.2,98,0.08,,---,0.00,VWS V14.01,2013-04-11 05:10:00,
2013-04-11 00:15:00,35.4,34.9,30.03,East,90,9.6,11.2,98,0.12,,---,0.04,VWS V14.01,2013-04-11 05:15:00,
2013-04-11 00:20:00,35.4,34.9,30.03,South,180,6.3,6.3,98,0.12,,---,0.04,VWS V14.01,2013-04-11 05:20:00,
2013-04-11 00:25:00,35.4,34.9,30.03,NE,45,2.9,6.5,98,0.12,,---,0.04,VWS V14.01,2013-04-11 05:25:00,
2013-04-11 00:30:00,35.4,34.9,30.03,East,90,6.3,9.0,98,0.16,,---,0.08,VWS V14.01,2013-04-11 05:30:00,
2013-04-11 00:35:00,35.4,34.9,30.03,East,90,8.1,8.1,98,0.12,,---,0.08,VWS V14.01,2013-04-11 05:35:00,
2013-04-11 00:40:00,35.4,34.9,30.03,East,90,6.0,7.4,98,0.12,,---,0.08,VWS V14.01,2013-04-11 05:40:00,
2013-04-11 00:45:00,35.2,34.7,30.06,SE,135,9.0,9.0,98,0.16,,---,0.12,VWS V14.01,2013-04-11 05:45:00,
2013-04-11 00:50:00,35.2,34.7,30.06,NE,45,5.8,10.5,98,0.16,,---,0.12,VWS V14.01,2013-04-11 05:50:00,
2013-04-11 00:55:00,35.2,34.7,30.06,East,90,10.7,11.0,98,0.12,,---,0.12,VWS V14.01,2013-04-11 05:55:00,
2013-04-11 01:01:00,35.2,34.7,30.06,East,90,5.8,6.5,98,0.16,,---,0.16,VWS V14.01,2013-04-11 06:01:00,
2013-04-11 01:06:00,35.2,34.7,30.06,East,90,10.5,10.5,98,0.16,,---,0.16,VWS V14.01,2013-04-11 06:06:00,
2013-04-11 01:10:00,35.1,34.5,30.06,East,90,8.1,8.1,98,0.16,,---,0.16,VWS V14.01,2013-04-11 06:10:00,
2013-04-11 01:15:00,35.1,34.5,30.03,West,270,5.4,10.7,98,0.17,,---,0.21,VWS V14.01,2013-04-11 06:15:00,
2013-04-11 01:20:00,35.1,34.5,30.03,East,90,5.8,7.6,98,0.17,,---,0.21,VWS V14.01,2013-04-11 06:20:00,
2013-04-11 01:25:00,35.1,34.5,30.03,East,90,5.4,9.6,98,0.17,,---,0.21,VWS V14.01,2013-04-11 06:25:00,
2013-04-11 01:30:00,35.1,34.5,30.03,NE,45,7.6,12.3,98,0.17,,---,0.25,VWS V14.01,2013-04-11 06:30:00,
2013-04-11 01:35:00,34.9,34.4,30.03,East,90,6.5,12.3,98,0.17,,---,0.25,VWS V14.01,2013-04-11 06:35:00,
2013-04-11 01:40:00,34.9,34.4,30.03,East,90,5.4,9.6,98,0.17,,---,0.25,VWS V14.01,2013-04-11 06:40:00,
2013-04-11 01:45:00,34.9,34.4,30.00,East,90,6.7,8.5,98,0.13,,---,0.25,VWS V14.01,2013-04-11 06:45:00,
2013-04-11 01:51:00,34.7,34.2,30.00,East,90,10.1,10.5,98,0.13,,---,0.25,VWS V14.01,2013-04-11 06:51:00,
2013-04-11 01:56:00,34.5,34.0,30.00,East,90,12.8,19.2,98,0.13,,---,0.25,VWS V14.01,2013-04-11 06:56:00,
2013-04-11 02:00:00,34.3,33.8,29.85,North,0,10.5,13.2,98,0.09,,---,0.25,VWS V14.01,2013-04-11 07:00:00,
2013-04-11 02:05:00,34.3,33.8,29.85,East,90,9.6,12.8,98,0.09,,---,0.25,VWS V14.01,2013-04-11 07:05:00,
2013-04-11 02:10:00,34.3,33.8,29.85,East,90,6.0,8.1,98,0.13,,---,0.29,VWS V14.01,2013-04-11 07:10:00,
2013-04-11 02:15:00,34.3,33.8,29.91,East,90,7.6,15.2,98,0.13,,---,0.29,VWS V14.01,2013-04-11 07:15:00,
2013-04-11 02:20:00,34.3,33.8,29.91,NE,45,8.1,8.1,98,0.08,,---,0.29,VWS V14.01,2013-04-11 07:20:00,
2013-04-11 02:25:00,34.3,33.8,29.91,South,180,4.7,15.4,98,0.08,,---,0.29,VWS V14.01,2013-04-11 07:25:00,
2013-04-11 02:30:00,34.3,33.8,29.88,South,180,4.0,10.1,98,0.04,,---,0.29,VWS V14.01,2013-04-11 07:30:00,
2013-04-11 02:35:00,34.3,33.8,29.88,East,90,12.3,687.4,98,0.04,,---,0.29,VWS V14.01,2013-04-11 07:35:00,
2013-04-11 02:41:00,34.3,33.8,29.88,ESE,112,9.8,9.8,98,0.04,,---,0.29,VWS V14.01,2013-04-11 07:41:00,
2013-04-11 02:46:00,34.2,33.7,29.97,East,90,8.1,9.6,98,0.04,,---,0.29,VWS V14.01,2013-04-11 07:46:00,
2013-04-11 02:50:00,34.3,33.8,29.97,East,90,11.0,11.0,98,0.04,,---,0.29,VWS V14.01,2013-04-11 07:50:00,
2013-04-11 02:55:00,34.2,33.7,29.97,East,90,10.1,10.1,98,0.04,,---,0.29,VWS V14.01,2013-04-11 07:55:00,
2013-04-11 03:00:00,34.2,33.7,29.91,East,90,10.1,14.3,98,0.04,,---,0.29,VWS V14.01,2013-04-11 08:00:00,
2013-04-11 03:06:00,34.0,33.2,29.91,NE,45,11.0,11.0,97,0.04,,---,0.29,VWS V14.01,2013-04-11 08:06:00,
2013-04-11 03:10:00,34.0,33.2,29.91,East,90,5.8,9.6,97,0.00,,---,0.29,VWS V14.01,2013-04-11 08:10:00,
2013-04-11 03:16:00,34.0,33.2,29.94,East,90,8.7,10.3,97,0.00,,---,0.29,VWS V14.01,2013-04-11 08:16:00,
2013-04-11 03:21:00,34.0,33.5,29.94,East,90,8.5,9.6,98,0.00,,---,0.29,VWS V14.01,2013-04-11 08:21:00,
2013-04-11 03:26:00,34.0,33.5,29.94,East,90,4.3,8.5,98,0.00,,---,0.29,VWS V14.01,2013-04-11 08:26:00,
2013-04-11 03:30:00,34.0,33.5,29.94,East,90,8.1,10.7,98,0.00,,---,0.29,VWS V14.01,2013-04-11 08:30:00,
2013-04-11 03:35:00,34.0,33.5,29.94,East,90,7.8,9.2,98,0.00,,---,0.29,VWS V14.01,2013-04-11 08:35:00,
2013-04-11 03:40:00,34.0,33.2,29.94,SE,135,8.5,8.5,97,0.00,,---,0.29,VWS V14.01,2013-04-11 08:40:00,
2013-04-11 03:45:00,34.0,33.2,29.94,East,90,5.8,9.8,97,0.00,,---,0.29,VWS V14.01,2013-04-11 08:45:00,
2013-04-11 03:50:00,34.0,33.2,29.94,East,90,8.1,9.8,97,0.00,,---,0.29,VWS V14.01,2013-04-11 08:50:00,
2013-04-11 03:55:00,34.0,33.2,29.94,NE,45,7.4,7.4,97,0.00,,---,0.29,VWS V14.01,2013-04-11 08:55:00,
2013-04-11 04:00:00,34.0,33.2,29.94,NE,45,5.8,8.7,97,0.00,,---,0.29,VWS V14.01,2013-04-11 09:00:00,
2013-04-11 04:06:00,34.0,33.2,29.94,NE,45,8.5,8.5,97,0.00,,---,0.29,VWS V14.01,2013-04-11 09:06:00,
2013-04-11 04:11:00,34.0,33.2,29.94,East,90,8.7,8.7,97,0.00,,---,0.29,VWS V14.01,2013-04-11 09:11:00,
2013-04-11 04:16:00,34.0,33.2,29.91,East,90,10.5,10.5,97,0.00,,---,0.29,VWS V14.01,2013-04-11 09:16:00,
2013-04-11 04:21:00,34.0,33.2,29.91,SE,135,9.6,10.5,97,0.00,,---,0.29,VWS V14.01,2013-04-11 09:21:00,
2013-04-11 04:26:00,34.0,33.2,29.91,NE,45,7.4,14.3,97,0.00,,---,0.29,VWS V14.01,2013-04-11 09:26:00,
2013-04-11 04:31:00,34.0,33.2,29.94,East,90,6.5,8.7,97,0.00,,---,0.29,VWS V14.01,2013-04-11 09:31:00,
2013-04-11 04:36:00,34.0,33.2,29.94,East,90,3.8,12.8,97,0.00,,---,0.29,VWS V14.01,2013-04-11 09:36:00,
2013-04-11 04:41:00,34.0,33.2,29.94,East,90,4.9,8.7,97,0.00,,---,0.29,VWS V14.01,2013-04-11 09:41:00,
2013-04-11 04:45:00,34.0,33.2,29.94,East,90,8.1,14.1,97,0.00,,---,0.29,VWS V14.01,2013-04-11 09:45:00,
2013-04-11 04:50:00,34.0,33.2,29.94,SE,135,6.0,10.7,97,0.00,,---,0.29,VWS V14.01,2013-04-11 09:50:00,
2013-04-11 04:56:00,34.0,33.2,29.94,East,90,10.5,10.5,97,0.00,,---,0.29,VWS V14.01,2013-04-11 09:56:00,
2013-04-11 05:01:00,34.0,33.2,29.88,NE,45,4.0,7.2,97,0.00,,---,0.29,VWS V14.01,2013-04-11 10:01:00,
2013-04-11 05:06:00,34.0,33.2,29.88,NE,45,5.8,9.8,97,0.00,,---,0.29,VWS V14.01,2013-04-11 10:06:00,
2013-04-11 05:11:00,34.0,33.2,29.88,NE,45,6.5,9.8,97,0.00,,---,0.29,VWS V14.01,2013-04-11 10:11:00,
2013-04-11 05:16:00,34.0,33.2,29.91,East,90,7.4,8.5,97,0.00,,---,0.29,VWS V14.01,2013-04-11 10:16:00,
2013-04-11 05:21:00,34.0,33.5,29.91,NE,45,6.3,14.8,98,0.00,,---,0.29,VWS V14.01,2013-04-11 10:21:00,
2013-04-11 05:26:00,34.0,33.5,29.91,NE,45,8.7,8.7,98,0.00,,---,0.29,VWS V14.01,2013-04-11 10:26:00,
2013-04-11 05:31:00,34.0,33.5,29.91,NE,45,5.8,15.4,98,0.00,,---,0.29,VWS V14.01,2013-04-11 10:31:00,
2013-04-11 05:37:00,34.0,33.5,29.91,East,90,4.9,8.7,98,0.00,,---,0.29,VWS V14.01,2013-04-11 10:37:00,
2013-04-11 05:42:00,33.8,33.3,29.91,East,90,10.1,10.7,98,0.00,,---,0.29,VWS V14.01,2013-04-11 10:42:00,
2013-04-11 05:47:00,33.8,33.3,29.91,East,90,8.7,10.1,98,0.00,,---,0.29,VWS V14.01,2013-04-11 10:47:00,
2013-04-11 05:52:00,33.8,33.3,29.91,East,90,6.5,8.1,98,0.00,,---,0.29,VWS V14.01,2013-04-11 10:52:00,
2013-04-11 05:57:00,33.8,33.3,29.91,ESE,112,7.4,7.4,98,0.00,,---,0.29,VWS V14.01,2013-04-11 10:57:00,
2013-04-11 06:02:00,33.8,33.3,29.91,East,90,8.7,8.7,98,0.00,,---,0.29,VWS V14.01,2013-04-11 11:02:00,
2013-04-11 06:07:00,33.8,33.3,29.91,East,90,6.5,10.5,98,0.00,,---,0.29,VWS V14.01,2013-04-11 11:07:00,
2013-04-11 06:12:00,33.8,33.3,29.91,NE,45,6.0,8.1,98,0.00,,---,0.29,VWS V14.01,2013-04-11 11:12:00,
2013-04-11 06:17:00,33.8,33.3,29.91,East,90,12.5,12.5,98,0.00,,---,0.29,VWS V14.01,2013-04-11 11:17:00,
2013-04-11 06:22:00,33.8,33.3,29.91,NE,45,9.8,9.8,98,0.00,,---,0.29,VWS V14.01,2013-04-11 11:22:00,
2013-04-11 06:27:00,33.8,33.3,29.91,South,180,3.6,5.8,98,0.00,,---,0.29,VWS V14.01,2013-04-11 11:27:00,
2013-04-11 06:32:00,33.8,33.3,29.91,East,90,5.6,5.6,98,0.00,,---,0.29,VWS V14.01,2013-04-11 11:32:00,
2013-04-11 06:37:00,33.8,33.3,29.91,NE,45,6.3,6.3,98,0.00,,---,0.29,VWS V14.01,2013-04-11 11:37:00,
2013-04-11 06:42:00,34.0,33.5,29.91,East,90,5.8,5.8,98,0.00,,---,0.29,VWS V14.01,2013-04-11 11:42:00,
2013-04-11 06:47:00,34.0,33.5,29.88,East,90,7.6,7.6,98,0.00,,---,0.29,VWS V14.01,2013-04-11 11:47:00,
2013-04-11 06:52:00,34.0,33.5,29.88,East,90,6.0,6.0,98,0.00,,---,0.29,VWS V14.01,2013-04-11 11:52:00,
2013-04-11 06:57:00,34.0,33.5,29.88,East,90,4.3,4.3,98,0.00,,---,0.29,VWS V14.01,2013-04-11 11:57:00,
2013-04-11 07:02:00,34.0,33.5,29.88,North,0,9.8,9.8,98,0.00,,---,0.29,VWS V14.01,2013-04-11 12:02:00,
2013-04-11 07:07:00,34.2,33.7,29.88,NE,45,5.4,5.4,98,0.00,,---,0.29,VWS V14.01,2013-04-11 12:07:00,
2013-04-11 07:12:00,34.2,33.7,29.88,East,90,10.3,10.3,98,0.00,,---,0.29,VWS V14.01,2013-04-11 12:12:00,
2013-04-11 07:17:00,34.3,33.8,29.88,East,90,7.6,7.6,98,0.00,,---,0.29,VWS V14.01,2013-04-11 12:17:00,
2013-04-11 07:22:00,34.3,33.8,29.88,East,90,6.0,6.0,98,0.00,,---,0.29,VWS V14.01,2013-04-11 12:22:00,
2013-04-11 07:27:00,34.3,33.8,29.88,East,90,6.5,6.5,98,0.00,,---,0.29,VWS V14.01,2013-04-11 12:27:00,
2013-04-11 07:32:00,34.5,34.0,29.91,ESE,112,5.6,5.6,98,0.04,,---,0.33,VWS V14.01,2013-04-11 12:32:00,
2013-04-11 07:37:00,34.5,34.0,29.91,East,90,13.6,13.6,98,0.04,,---,0.33,VWS V14.01,2013-04-11 12:37:00,
2013-04-11 07:42:00,34.5,34.0,29.91,East,90,7.6,9.6,98,0.04,,---,0.33,VWS V14.01,2013-04-11 12:42:00,
2013-04-11 07:47:00,34.7,34.2,29.91,NE,45,6.3,6.3,98,0.04,,---,0.33,VWS V14.01,2013-04-11 12:47:00,
2013-04-11 07:52:00,34.7,34.2,29.91,East,90,7.8,7.8,98,0.04,,---,0.33,VWS V14.01,2013-04-11 12:52:00,
2013-04-11 07:57:00,34.7,34.2,29.91,SE,135,6.5,9.8,98,0.04,,---,0.33,VWS V14.01,2013-04-11 12:57:00,
2013-04-11 08:02:00,34.7,34.2,29.91,East,90,10.3,10.3,98,0.04,,---,0.33,VWS V14.01,2013-04-11 13:02:00,
2013-04-11 08:07:00,34.9,34.4,29.91,East,90,5.8,6.5,98,0.04,,---,0.33,VWS V14.01,2013-04-11 13:07:00,
2013-04-11 08:12:00,34.9,34.4,29.88,NE,45,12.3,12.3,98,0.04,,---,0.33,VWS V14.01,2013-04-11 13:12:00,
2013-04-11 08:17:00,34.9,34.4,29.88,East,90,5.6,5.6,98,0.04,,---,0.33,VWS V14.01,2013-04-11 13:17:00,
2013-04-11 08:22:00,34.9,34.4,29.88,East,90,6.0,7.2,98,0.04,,---,0.33,VWS V14.01,2013-04-11 13:22:00,
2013-04-11 08:27:00,34.9,34.4,29.88,East,90,5.6,10.5,98,0.04,,---,0.33,VWS V14.01,2013-04-11 13:27:00,
2013-04-11 08:32:00,34.9,34.4,29.91,East,90,5.6,8.7,98,0.00,,---,0.33,VWS V14.01,2013-04-11 13:32:00,
2013-04-11 08:37:00,34.9,34.4,29.91,NE,45,9.6,13.9,98,0.00,,---,0.33,VWS V14.01,2013-04-11 13:37:00,
2013-04-11 08:42:00,35.1,34.5,29.88,East,90,7.6,7.6,98,0.00,,---,0.33,VWS V14.01,2013-04-11 13:42:00,
2013-04-11 08:47:00,35.1,34.5,29.88,East,90,7.2,9.6,98,0.00,,---,0.33,VWS V14.01,2013-04-11 13:47:00,
2013-04-11 08:53:00,35.1,34.5,29.88,East,90,9.6,9.6,98,0.00,,---,0.33,VWS V14.01,2013-04-11 13:53:00,
2013-04-11 08:58:00,35.1,34.5,29.88,East,90,8.5,9.2,98,0.00,,---,0.33,VWS V14.01,2013-04-11 13:58:00,
2013-04-11 09:03:00,35.1,34.5,29.88,SE,135,6.0,6.3,98,0.00,,---,0.33,VWS V14.01,2013-04-11 14:03:00,
2013-04-11 09:08:00,35.1,34.5,29.88,SW,225,7.8,12.5,98,0.00,,---,0.33,VWS V14.01,2013-04-11 14:08:00,
2013-04-11 09:13:00,35.2,34.7,29.85,North,0,14.3,14.3,98,0.00,,---,0.33,VWS V14.01,2013-04-11 14:13:00,
2013-04-11 09:18:00,35.2,34.7,29.85,East,90,8.1,8.1,98,0.00,,---,0.33,VWS V14.01,2013-04-11 14:18:00,
2013-04-11 09:23:00,35.2,34.7,29.85,East,90,7.8,10.5,98,0.00,,---,0.33,VWS V14.01,2013-04-11 14:23:00,
2013-04-11 09:28:00,35.2,34.7,29.85,East,90,17.5,17.5,98,0.04,,---,0.37,VWS V14.01,2013-04-11 14:28:00,
2013-04-11 09:33:00,35.2,34.7,29.85,NE,45,10.5,10.5,98,0.04,,---,0.37,VWS V14.01,2013-04-11 14:33:00,
2013-04-11 09:38:00,35.4,34.9,29.85,ESE,112,7.6,7.6,98,0.04,,---,0.37,VWS V14.01,2013-04-11 14:38:00,
2013-04-11 09:43:00,35.4,34.9,29.85,East,90,4.3,4.3,98,0.04,,---,0.37,VWS V14.01,2013-04-11 14:43:00,
2013-04-11 09:48:00,35.2,34.7,29.85,East,90,10.7,10.7,98,0.04,,---,0.37,VWS V14.01,2013-04-11 14:48:00,
2013-04-11 09:53:00,35.2,34.7,29.85,East,90,3.8,10.5,98,0.04,,---,0.37,VWS V14.01,2013-04-11 14:53:00,
2013-04-11 09:58:00,35.4,34.9,29.85,NE,45,7.8,7.8,98,0.08,,---,0.41,VWS V14.01,2013-04-11 14:58:00,
2013-04-11 10:03:00,35.6,35.1,29.85,East,90,11.0,11.0,98,0.08,,---,0.41,VWS V14.01,2013-04-11 15:03:00,
2013-04-11 10:08:00,35.6,35.1,29.85,NE,45,7.4,14.8,98,0.08,,---,0.41,VWS V14.01,2013-04-11 15:08:00,
2013-04-11 10:13:00,35.8,35.3,29.85,East,90,10.7,10.7,98,0.08,,---,0.41,VWS V14.01,2013-04-11 15:13:00,
2013-04-11 10:18:00,35.8,35.3,29.85,East,90,10.7,14.1,98,0.08,,---,0.41,VWS V14.01,2013-04-11 15:18:00,
2013-04-11 10:23:00,36.0,35.5,29.85,SE,135,6.0,6.0,98,0.08,,---,0.41,VWS V14.01,2013-04-11 15:23:00,
2013-04-11 10:28:00,36.0,35.5,29.82,East,90,10.7,10.7,98,0.04,,---,0.41,VWS V14.01,2013-04-11 15:28:00,
2013-04-11 10:33:00,36.1,35.6,29.82,South,180,12.1,12.1,98,0.04,,---,0.41,VWS V14.01,2013-04-11 15:33:00,
2013-04-11 10:38:00,36.1,35.6,29.82,East,90,10.1,10.1,98,0.04,,---,0.41,VWS V14.01,2013-04-11 15:38:00,
2013-04-11 10:43:00,36.3,35.8,29.85,East,90,9.6,9.6,98,0.04,,---,0.41,VWS V14.01,2013-04-11 15:43:00,
2013-04-11 10:48:00,36.5,36.0,29.85,SE,135,7.6,7.6,98,0.04,,---,0.41,VWS V14.01,2013-04-11 15:48:00,
2013-04-11 10:53:00,36.5,36.0,29.85,East,90,2.9,9.0,98,0.04,,---,0.41,VWS V14.01,2013-04-11 15:53:00,
2013-04-11 10:58:00,36.7,36.2,29.85,NE,45,5.8,5.8,98,0.00,,---,0.41,VWS V14.01,2013-04-11 15:58:00,
2013-04-11 11:03:00,36.7,36.2,29.85,East,90,10.5,10.5,98,0.00,,---,0.41,VWS V14.01,2013-04-11 16:03:00,
2013-04-11 11:08:00,36.7,36.2,29.85,NE,45,6.3,10.3,98,0.00,,---,0.41,VWS V14.01,2013-04-11 16:08:00,
2013-04-11 11:13:00,36.7,36.2,29.85,East,90,12.3,12.3,98,0.00,,---,0.41,VWS V14.01,2013-04-11 16:13:00,
2013-04-11 11:18:00,36.9,36.3,29.85,East,90,12.3,12.3,98,0.00,,---,0.41,VWS V14.01,2013-04-11 16:18:00,
2013-04-11 11:23:00,36.9,36.3,29.85,East,90,5.4,5.4,98,0.00,,---,0.41,VWS V14.01,2013-04-11 16:23:00,
2013-04-11 11:28:00,36.9,36.3,29.85,North,0,13.2,13.2,98,0.00,,---,0.41,VWS V14.01,2013-04-11 16:28:00,
2013-04-11 11:33:00,36.7,36.2,29.85,East,90,10.3,10.3,98,0.00,,---,0.41,VWS V14.01,2013-04-11 16:33:00,
2013-04-11 11:38:00,36.7,36.2,29.85,East,90,10.5,10.5,98,0.00,,---,0.41,VWS V14.01,2013-04-11 16:38:00,
2013-04-11 11:43:00,36.9,36.3,29.85,East,90,7.8,7.8,98,0.00,,---,0.41,VWS V14.01,2013-04-11 16:43:00,
2013-04-11 11:48:00,36.9,36.3,29.85,East,90,12.1,12.1,98,0.00,,---,0.41,VWS V14.01,2013-04-11 16:48:00,
2013-04-11 11:53:00,36.9,36.3,29.85,East,90,8.7,8.7,98,0.00,,---,0.41,VWS V14.01,2013-04-11 16:53:00,
2013-04-11 11:58:00,37.0,36.5,29.85,East,90,6.0,6.0,98,0.00,,---,0.41,VWS V14.01,2013-04-11 16:58:00,
2013-04-11 12:03:00,36.9,36.3,29.85,East,90,6.0,6.0,98,0.00,,---,0.41,VWS V14.01,2013-04-11 17:03:00,
2013-04-11 12:08:00,36.7,36.2,29.85,East,90,18.1,18.1,98,0.00,,---,0.41,VWS V14.01,2013-04-11 17:08:00,
2013-04-11 12:13:00,36.9,36.3,29.85,East,90,8.7,8.7,98,0.00,,---,0.41,VWS V14.01,2013-04-11 17:13:00,
2013-04-11 12:18:00,36.9,36.3,29.85,East,90,8.1,8.1,98,0.00,,---,0.41,VWS V14.01,2013-04-11 17:18:00,
2013-04-11 12:23:00,36.9,36.3,29.85,East,90,10.7,10.7,98,0.00,,---,0.41,VWS V14.01,2013-04-11 17:23:00,
2013-04-11 12:28:00,36.9,36.3,29.85,East,90,7.8,8.1,98,0.00,,---,0.41,VWS V14.01,2013-04-11 17:28:00,
2013-04-11 12:33:00,36.9,36.3,29.85,SE,135,14.8,15.2,98,0.04,,---,0.45,VWS V14.01,2013-04-11 17:33:00,
2013-04-11 12:38:00,36.9,36.3,29.85,East,90,13.0,13.0,98,0.04,,---,0.45,VWS V14.01,2013-04-11 17:38:00,
2013-04-11 12:43:00,36.9,36.3,29.82,South,180,7.8,7.8,98,0.04,,---,0.45,VWS V14.01,2013-04-11 17:43:00,
2013-04-11 12:48:00,36.9,36.3,29.82,NE,45,6.5,6.5,98,0.04,,---,0.45,VWS V14.01,2013-04-11 17:48:00,
2013-04-11 12:53:00,36.9,36.3,29.82,ESE,112,3.1,3.1,98,0.04,,---,0.45,VWS V14.01,2013-04-11 17:53:00,
2013-04-11 12:58:00,37.0,36.5,29.79,SE,135,7.8,7.8,98,0.04,,---,0.45,VWS V14.01,2013-04-11 17:58:00,
2013-04-11 13:03:00,36.9,36.3,29.79,East,90,8.7,14.3,98,0.04,,---,0.45,VWS V14.01,2013-04-11 18:03:00,
2013-04-11 13:08:00,36.9,36.3,29.79,ESE,112,10.7,10.7,98,0.04,,---,0.45,VWS V14.01,2013-04-11 18:08:00,
2013-04-11 13:13:00,36.9,36.3,29.79,East,90,6.3,6.3,98,0.04,,---,0.45,VWS V14.01,2013-04-11 18:13:00,
2013-04-11 13:18:00,37.0,36.5,29.79,East,90,8.1,8.5,98,0.04,,---,0.45,VWS V14.01,2013-04-11 18:18:00,
2013-04-11 13:23:00,36.9,36.3,29.79,East,90,11.9,11.9,98,0.04,,---,0.45,VWS V14.01,2013-04-11 18:23:00,
2013-04-11 13:28:00,37.0,36.5,29.79,SE,135,13.2,13.2,98,0.04,,---,0.45,VWS V14.01,2013-04-11 18:28:00,
2013-04-11 13:33:00,36.9,36.3,29.79,SE,135,8.1,10.1,98,0.00,,---,0.45,VWS V14.01,2013-04-11 18:33:00,
2013-04-11 13:38:00,36.9,36.3,29.79,NE,45,7.2,10.3,98,0.00,,---,0.45,VWS V14.01,2013-04-11 18:38:00,
2013-04-11 13:43:00,36.9,36.3,29.79,East,90,8.5,8.5,98,0.00,,---,0.45,VWS V14.01,2013-04-11 18:43:00,
2013-04-11 13:48:00,36.9,36.3,29.79,East,90,7.2,10.5,98,0.00,,---,0.45,VWS V14.01,2013-04-11 18:48:00,
2013-04-11 13:53:00,37.0,36.5,29.79,South,180,6.3,7.2,98,0.00,,---,0.45,VWS V14.01,2013-04-11 18:53:00,
2013-04-11 13:58:00,36.9,36.3,29.76,NE,45,7.2,7.2,98,0.00,,---,0.45,VWS V14.01,2013-04-11 18:58:00,
2013-04-11 14:03:00,36.7,36.2,29.76,East,90,10.1,10.1,98,0.00,,---,0.45,VWS V14.01,2013-04-11 19:03:00,
2013-04-11 14:08:00,36.7,36.2,29.76,East,90,5.8,11.0,98,0.00,,---,0.45,VWS V14.01,2013-04-11 19:08:00,
2013-04-11 14:13:00,36.7,36.2,29.76,NE,45,8.7,8.7,98,0.00,,---,0.45,VWS V14.01,2013-04-11 19:13:00,
2013-04-11 14:18:00,36.9,36.3,29.76,SE,135,14.3,14.3,98,0.00,,---,0.45,VWS V14.01,2013-04-11 19:18:00,
2013-04-11 14:23:00,36.9,36.3,29.76,East,90,5.8,7.4,98,0.00,,---,0.45,VWS V14.01,2013-04-11 19:23:00,
2013-04-11 14:28:00,36.9,36.3,29.76,East,90,11.0,11.0,98,0.00,,---,0.45,VWS V14.01,2013-04-11 19:28:00,
2013-04-11 14:33:00,36.7,36.2,29.76,NE,45,8.1,13.0,98,0.00,,---,0.45,VWS V14.01,2013-04-11 19:33:00,
2013-04-11 14:38:00,36.7,36.2,29.76,East,90,8.1,8.1,98,0.00,,---,0.45,VWS V14.01,2013-04-11 19:38:00,
2013-04-11 14:43:00,36.9,36.3,29.76,East,90,8.7,8.7,98,0.00,,---,0.45,VWS V14.01,2013-04-11 19:43:00,
2013-04-11 14:48:00,36.9,36.3,29.76,East,90,6.0,6.0,98,0.00,,---,0.45,VWS V14.01,2013-04-11 19:48:00,
2013-04-11 14:53:00,36.7,36.2,29.76,SE,135,8.1,8.1,98,0.00,,---,0.45,VWS V14.01,2013-04-11 19:53:00,
2013-04-11 14:58:00,36.7,36.2,29.79,East,90,9.0,10.7,98,0.00,,---,0.45,VWS V14.01,2013-04-11 19:58:00,
2013-04-11 15:03:00,36.9,36.3,29.79,East,90,10.3,10.3,98,0.00,,---,0.45,VWS V14.01,2013-04-11 20:03:00,
2013-04-11 15:08:00,36.9,36.3,29.79,NE,45,4.3,4.3,98,0.00,,---,0.45,VWS V14.01,2013-04-11 20:08:00,
2013-04-11 15:13:00,36.9,36.3,29.79,East,90,8.7,8.7,98,0.00,,---,0.45,VWS V14.01,2013-04-11 20:13:00,
2013-04-11 15:18:00,36.9,36.3,29.79,East,90,5.6,6.3,98,0.00,,---,0.45,VWS V14.01,2013-04-11 20:18:00,
2013-04-11 15:23:00,36.9,36.3,29.79,NE,45,8.5,8.5,98,0.00,,---,0.45,VWS V14.01,2013-04-11 20:23:00,
2013-04-11 15:28:00,36.9,36.3,29.79,East,90,5.4,9.4,98,0.00,,---,0.45,VWS V14.01,2013-04-11 20:28:00,
2013-04-11 15:33:00,36.7,36.2,29.79,East,90,11.0,11.0,98,0.00,,---,0.45,VWS V14.01,2013-04-11 20:33:00,
2013-04-11 15:38:00,36.7,36.2,29.79,NE,45,4.0,9.2,98,0.00,,---,0.45,VWS V14.01,2013-04-11 20:38:00,
2013-04-11 15:43:00,36.7,36.2,29.76,East,90,8.1,8.1,98,0.00,,---,0.45,VWS V14.01,2013-04-11 20:43:00,
2013-04-11 15:48:00,36.5,36.0,29.76,East,90,5.6,7.2,98,0.00,,---,0.45,VWS V14.01,2013-04-11 20:48:00,
2013-04-11 15:53:00,36.5,36.0,29.76,East,90,5.4,7.6,98,0.00,,---,0.45,VWS V14.01,2013-04-11 20:53:00,
2013-04-11 15:58:00,36.3,35.8,29.79,ESE,112,5.6,9.2,98,0.00,,---,0.45,VWS V14.01,2013-04-11 20:58:00,
2013-04-11 16:03:00,36.3,35.8,29.79,East,90,6.0,9.6,98,0.00,,---,0.45,VWS V14.01,2013-04-11 21:03:00,
2013-04-11 16:08:00,36.3,35.8,29.79,East,90,8.1,8.1,98,0.00,,---,0.45,VWS V14.01,2013-04-11 21:08:00,
2013-04-11 16:13:00,36.3,35.8,29.79,ESE,112,6.3,6.5,98,0.00,,---,0.45,VWS V14.01,2013-04-11 21:13:00,
2013-04-11 16:18:00,36.1,35.6,29.79,SE,135,8.7,10.3,98,0.00,,---,0.45,VWS V14.01,2013-04-11 21:18:00,
2013-04-11 16:24:00,36.1,35.6,29.79,East,90,8.1,8.1,98,0.00,,---,0.45,VWS V14.01,2013-04-11 21:24:00,
2013-04-11 16:29:00,36.1,35.6,29.79,East,90,6.5,6.5,98,0.00,,---,0.45,VWS V14.01,2013-04-11 21:29:00,
2013-04-11 16:34:00,36.1,35.6,29.79,NE,45,6.0,7.2,98,0.00,,---,0.45,VWS V14.01,2013-04-11 21:34:00,
2013-04-11 16:39:00,36.1,35.6,29.79,NE,45,4.9,4.9,98,0.00,,---,0.45,VWS V14.01,2013-04-11 21:39:00,
2013-04-11 16:44:00,36.1,35.6,29.79,East,90,5.4,5.4,98,0.00,,---,0.45,VWS V14.01,2013-04-11 21:44:00,
2013-04-11 16:49:00,36.1,35.6,29.79,East,90,9.4,9.4,98,0.00,,---,0.45,VWS V14.01,2013-04-11 21:49:00,
2013-04-11 16:54:00,36.1,35.6,29.79,NE,45,5.4,5.4,98,0.00,,---,0.45,VWS V14.01,2013-04-11 21:54:00,
2013-04-11 16:59:00,36.1,35.6,29.79,NE,45,3.1,8.1,98,0.00,,---,0.45,VWS V14.01,2013-04-11 21:59:00,
2013-04-11 17:04:00,36.1,35.6,29.79,NE,45,8.1,8.1,98,0.00,,---,0.45,VWS V14.01,2013-04-11 22:04:00,
2013-04-11 17:09:00,36.0,35.5,29.79,NE,45,5.6,6.5,98,0.00,,---,0.45,VWS V14.01,2013-04-11 22:09:00,
2013-04-11 17:14:00,36.0,35.5,29.79,NE,45,4.7,4.7,98,0.00,,---,0.45,VWS V14.01,2013-04-11 22:14:00,
2013-04-11 17:19:00,35.8,35.3,29.79,East,90,5.6,6.5,98,0.00,,---,0.45,VWS V14.01,2013-04-11 22:19:00,
2013-04-11 17:24:00,35.8,35.3,29.79,NE,45,5.8,5.8,98,0.00,,---,0.45,VWS V14.01,2013-04-11 22:24:00,
2013-04-11 17:29:00,35.8,35.3,29.76,East,90,5.8,6.0,98,0.00,,---,0.45,VWS V14.01,2013-04-11 22:29:00,
2013-04-11 17:34:00,35.8,35.3,29.76,East,90,4.7,4.7,98,0.00,,---,0.45,VWS V14.01,2013-04-11 22:34:00,
2013-04-11 17:39:00,35.8,35.3,29.76,NE,45,4.3,5.8,98,0.00,,---,0.45,VWS V14.01,2013-04-11 22:39:00,
2013-04-11 17:44:00,35.6,35.1,29.76,East,90,5.6,5.6,98,0.00,,---,0.45,VWS V14.01,2013-04-11 22:44:00,
2013-04-11 17:49:00,35.6,35.1,29.76,NE,45,9.8,9.8,98,0.00,,---,0.45,VWS V14.01,2013-04-11 22:49:00,
2013-04-11 17:54:00,35.6,35.1,29.76,SE,135,7.4,8.1,98,0.00,,---,0.45,VWS V14.01,2013-04-11 22:54:00,
2013-04-11 17:59:00,35.6,35.1,29.76,ESE,112,11.0,11.0,98,0.00,,---,0.45,VWS V14.01,2013-04-11 22:59:00,
2013-04-11 18:04:00,35.4,34.9,29.76,East,90,6.5,6.5,98,0.00,,---,0.45,VWS V14.01,2013-04-11 23:04:00,
2013-04-11 18:09:00,35.4,34.9,29.76,East,90,5.4,5.4,98,0.00,,---,0.45,VWS V14.01,2013-04-11 23:09:00,
2013-04-11 18:14:00,35.4,34.9,29.79,East,90,7.6,7.6,98,0.00,,---,0.45,VWS V14.01,2013-04-11 23:14:00,
2013-04-11 18:19:00,35.4,34.9,29.79,ESE,112,6.0,7.2,98,0.00,,---,0.45,VWS V14.01,2013-04-11 23:19:00,
2013-04-11 18:24:00,35.4,34.9,29.79,East,90,3.8,3.8,98,0.00,,---,0.45,VWS V14.01,2013-04-11 23:24:00,
2013-04-11 18:29:00,35.4,34.9,29.82,East,90,7.4,7.4,98,0.00,,---,0.45,VWS V14.01,2013-04-11 23:29:00,
2013-04-11 18:34:00,35.2,34.7,29.82,East,90,5.4,5.4,98,0.04,,---,0.49,VWS V14.01,2013-04-11 23:34:00,
2013-04-11 18:39:00,35.2,34.7,29.82,NE,45,5.4,6.5,98,0.04,,---,0.49,VWS V14.01,2013-04-11 23:39:00,
2013-04-11 18:44:00,35.2,34.7,29.79,NE,45,6.0,6.0,98,0.04,,---,0.49,VWS V14.01,2013-04-11 23:44:00,
2013-04-11 18:49:00,35.1,34.5,29.79,ESE,112,9.2,9.2,98,0.04,,---,0.49,VWS V14.01,2013-04-11 23:49:00,
2013-04-11 18:54:00,35.1,34.5,29.79,East,90,6.3,6.3,98,0.04,,---,0.49,VWS V14.01,2013-04-11 23:54:00,
2013-04-11 18:59:00,35.1,34.5,29.76,ESE,112,5.6,5.6,98,0.04,,---,0.49,VWS V14.01,2013-04-11 23:59:00,
2013-04-11 19:04:00,35.1,34.5,29.76,East,90,10.5,10.5,98,0.04,,---,0.49,VWS V14.01,2013-04-12 00:04:00,
2013-04-11 19:09:00,34.9,34.4,29.76,East,90,7.4,7.4,98,0.04,,---,0.49,VWS V14.01,2013-04-12 00:09:00,
2013-04-11 19:14:00,34.9,34.4,29.74,East,90,7.4,13.2,98,0.04,,---,0.49,VWS V14.01,2013-04-12 00:14:00,
2013-04-11 19:19:00,34.9,34.4,29.74,East,90,9.6,9.6,98,0.04,,---,0.49,VWS V14.01,2013-04-12 00:19:00,
2013-04-11 19:24:00,34.9,34.4,29.74,SE,135,4.3,4.3,98,0.04,,---,0.49,VWS V14.01,2013-04-12 00:24:00,
2013-04-11 19:29:00,34.7,34.2,29.71,East,90,3.8,3.8,98,0.04,,---,0.49,VWS V14.01,2013-04-12 00:29:00,
2013-04-11 19:34:00,34.7,34.2,29.71,NE,45,6.0,6.0,98,0.00,,---,0.49,VWS V14.01,2013-04-12 00:34:00,
2013-04-11 19:39:00,34.7,34.2,29.71,East,90,3.4,7.4,98,0.00,,---,0.49,VWS V14.01,2013-04-12 00:39:00,
2013-04-11 19:44:00,34.5,34.0,29.71,East,90,4.0,4.0,98,0.00,,---,0.49,VWS V14.01,2013-04-12 00:44:00,
2013-04-11 19:49:00,34.5,34.0,29.71,East,90,3.8,3.8,98,0.00,,---,0.49,VWS V14.01,2013-04-12 00:49:00,
2013-04-11 19:54:00,34.5,34.0,29.71,East,90,7.6,7.6,98,0.00,,---,0.49,VWS V14.01,2013-04-12 00:54:00,
2013-04-11 19:59:00,34.5,34.0,29.74,East,90,4.5,4.5,98,0.00,,---,0.49,VWS V14.01,2013-04-12 00:59:00,
2013-04-11 20:04:00,34.5,34.0,29.74,East,90,6.5,6.5,98,0.00,,---,0.49,VWS V14.01,2013-04-12 01:04:00,
2013-04-11 20:09:00,34.5,34.0,29.74,East,90,5.4,5.4,98,0.00,,---,0.49,VWS V14.01,2013-04-12 01:09:00,
2013-04-11 20:14:00,34.5,34.0,29.71,East,90,7.4,7.4,98,0.00,,---,0.49,VWS V14.01,2013-04-12 01:14:00,
2013-04-11 20:19:00,34.5,34.0,29.71,East,90,7.2,7.2,98,0.00,,---,0.49,VWS V14.01,2013-04-12 01:19:00,
2013-04-11 20:24:00,34.5,34.0,29.71,East,90,5.6,8.1,98,0.00,,---,0.49,VWS V14.01,2013-04-12 01:24:00,
2013-04-11 20:29:00,34.5,34.0,29.74,East,90,3.1,3.1,98,0.00,,---,0.49,VWS V14.01,2013-04-12 01:29:00,
2013-04-11 20:34:00,34.5,34.0,29.74,NE,45,8.1,8.1,98,0.00,,---,0.49,VWS V14.01,2013-04-12 01:34:00,
2013-04-11 20:39:00,34.5,34.0,29.74,East,90,6.0,6.0,98,0.00,,---,0.49,VWS V14.01,2013-04-12 01:39:00,
2013-04-11 20:44:00,34.5,34.0,29.74,East,90,5.4,7.2,98,0.00,,---,0.49,VWS V14.01,2013-04-12 01:44:00,
2013-04-11 20:49:00,34.5,34.0,29.74,NE,45,2.7,4.0,98,0.00,,---,0.49,VWS V14.01,2013-04-12 01:49:00,
2013-04-11 20:54:00,34.5,34.0,29.74,East,90,2.5,4.9,98,0.00,,---,0.49,VWS V14.01,2013-04-12 01:54:00,
2013-04-11 20:59:00,34.5,34.0,29.74,East,90,4.9,6.5,98,0.00,,---,0.49,VWS V14.01,2013-04-12 01:59:00,
2013-04-11 21:04:00,34.5,34.0,29.74,NE,45,3.8,3.8,98,0.00,,---,0.49,VWS V14.01,2013-04-12 02:04:00,
2013-04-11 21:09:00,34.5,34.0,29.74,NE,45,7.8,7.8,98,0.00,,---,0.49,VWS V14.01,2013-04-12 02:09:00,
2013-04-11 21:14:00,34.7,34.2,29.74,East,90,10.7,10.7,98,0.00,,---,0.49,VWS V14.01,2013-04-12 02:14:00,
2013-04-11 21:19:00,34.7,34.2,29.74,East,90,3.6,3.6,98,0.00,,---,0.49,VWS V14.01,2013-04-12 02:19:00,
2013-04-11 21:24:00,34.7,34.2,29.74,SE,135,3.1,4.3,98,0.00,,---,0.49,VWS V14.01,2013-04-12 02:24:00,
2013-04-11 21:29:00,34.7,34.2,29.74,East,90,6.3,6.3,98,0.00,,---,0.49,VWS V14.01,2013-04-12 02:29:00,
2013-04-11 21:34:00,34.7,34.2,29.74,NE,45,6.5,7.8,98,0.00,,---,0.49,VWS V14.01,2013-04-12 02:34:00,
2013-04-11 21:39:00,34.7,34.2,29.74,East,90,4.9,4.9,98,0.00,,---,0.49,VWS V14.01,2013-04-12 02:39:00,
2013-04-11 21:44:00,34.7,34.2,29.71,East,90,7.4,7.4,98,0.00,,---,0.49,VWS V14.01,2013-04-12 02:44:00,
2013-04-11 21:49:00,34.7,34.2,29.71,ESE,112,4.0,4.0,98,0.00,,---,0.49,VWS V14.01,2013-04-12 02:49:00,
2013-04-11 21:54:00,34.7,34.2,29.71,East,90,3.8,4.0,98,0.00,,---,0.49,VWS V14.01,2013-04-12 02:54:00,
2013-04-11 21:59:00,34.7,34.2,29.76,East,90,5.4,5.4,98,0.00,,---,0.49,VWS V14.01,2013-04-12 02:59:00,
2013-04-11 22:04:00,34.7,34.2,29.76,East,90,4.9,6.5,98,0.00,,---,0.49,VWS V14.01,2013-04-12 03:04:00,
2013-04-11 22:09:00,34.7,34.2,29.76,East,90,6.3,6.3,98,0.00,,---,0.49,VWS V14.01,2013-04-12 03:09:00,
2013-04-11 22:14:00,34.7,34.2,29.74,East,90,3.6,3.6,98,0.00,,---,0.49,VWS V14.01,2013-04-12 03:14:00,
2013-04-11 22:19:00,34.7,34.2,29.74,East,90,5.6,5.6,98,0.00,,---,0.49,VWS V14.01,2013-04-12 03:19:00,
2013-04-11 22:24:00,34.7,34.2,29.74,NE,45,6.0,6.0,98,0.00,,---,0.49,VWS V14.01,2013-04-12 03:24:00,
2013-04-11 22:29:00,34.9,34.4,29.71,East,90,4.0,4.0,98,0.00,,---,0.49,VWS V14.01,2013-04-12 03:29:00,
2013-04-11 22:34:00,34.9,34.4,29.71,East,90,4.3,7.4,98,0.00,,---,0.49,VWS V14.01,2013-04-12 03:34:00,
2013-04-11 22:39:00,34.9,34.4,29.71,NE,45,3.6,3.6,98,0.00,,---,0.49,VWS V14.01,2013-04-12 03:39:00,
2013-04-11 22:44:00,34.9,34.4,29.74,East,90,6.3,6.3,98,0.00,,---,0.49,VWS V14.01,2013-04-12 03:44:00,
2013-04-11 22:49:00,34.9,34.4,29.74,East,90,4.0,4.0,98,0.00,,---,0.49,VWS V14.01,2013-04-12 03:49:00,
2013-04-11 22:54:00,34.9,34.4,29.74,East,90,3.8,3.8,98,0.00,,---,0.49,VWS V14.01,2013-04-12 03:54:00,
2013-04-11 22:59:00,34.9,34.4,29.71,East,90,4.3,4.3,98,0.00,,---,0.49,VWS V14.01,2013-04-12 03:59:00,
2013-04-11 23:00:00,34.9,34.4,29.71,East,90,6.5,6.5,98,0.00,,---,0.49,VWS V14.01,2013-04-12 04:00:00,
2013-04-11 23:05:00,34.9,34.4,29.71,SE,135,2.7,3.6,98,0.05,,---,0.54,VWS V14.01,2013-04-12 04:05:00,
2013-04-11 23:10:00,34.9,34.4,29.71,East,90,4.9,4.9,98,0.05,,---,0.54,VWS V14.01,2013-04-12 04:10:00,
2013-04-11 23:15:00,34.9,34.4,29.71,East,90,4.3,7.6,98,0.05,,---,0.54,VWS V14.01,2013-04-12 04:15:00,
2013-04-11 23:20:00,34.9,34.4,29.71,East,90,3.8,3.8,98,0.05,,---,0.54,VWS V14.01,2013-04-12 04:20:00,
2013-04-11 23:25:00,34.9,34.4,29.71,East,90,4.9,4.9,98,0.05,,---,0.54,VWS V14.01,2013-04-12 04:25:00,
2013-04-11 23:30:00,34.9,34.4,29.76,SE,135,4.3,4.9,98,0.05,,---,0.54,VWS V14.01,2013-04-12 04:30:00,
2013-04-11 23:35:00,34.9,34.4,29.76,East,90,6.3,8.5,98,0.05,,---,0.54,VWS V14.01,2013-04-12 04:35:00,
2013-04-11 23:40:00,34.9,34.4,29.76,NE,45,2.5,4.3,98,0.05,,---,0.54,VWS V14.01,2013-04-12 04:40:00,
2013-04-11 23:45:00,34.9,34.4,29.74,NE,45,6.5,6.5,98,0.05,,---,0.54,VWS V14.01,2013-04-12 04:45:00,
2013-04-11 23:50:00,34.9,34.4,29.74,East,90,3.8,8.7,98,0.05,,---,0.54,VWS V14.01,2013-04-12 04:50:00,
2013-04-11 23:55:00,34.9,34.4,29.74,East,90,6.0,6.0,98,0.05,,---,0.54,VWS V14.01,2013-04-12 04:55:00,